sensor_id;sensor_type;location;lat;lon;timestamp;P1;durP1;ratioP1;P2;durP2;ratioP2
11646;SDS011;5880;52.342;9.662;2023-08-08T00:01:17;2.70;;;1.53;;
11646;SDS011;5880;52.342;9.662;2023-08-08T00:03:43;1.85;;;1.45;;
11646;SDS011;5880;52.342;9.662;2023-08-08T00:06:09;2.17;;;1.60;;
11646;SDS011;5880;52.342;9.662;2023-08-08T00:08:35;1.50;;;1.40;;
11646;SDS011;5880;52.342;9.662;2023-08-08T00:11:01;2.00;;;1.40;;
11646;SDS011;5880;52.342;9.662;2023-08-08T00:13:26;2.70;;;1.38;;
11646;SDS011;5880;52.342;9.662;2023-08-08T00:15:52;2.03;;;1.43;;
11646;SDS011;5880;52.342;9.662;2023-08-08T00:18:18;2.00;;;1.50;;
11646;SDS011;5880;52.342;9.662;2023-08-08T00:20:43;1.70;;;1.60;;
11646;SDS011;5880;52.342;9.662;2023-08-08T00:23:09;1.70;;;1.42;;
11646;SDS011;5880;52.342;9.662;2023-08-08T00:25:35;1.53;;;1.33;;
11646;SDS011;5880;52.342;9.662;2023-08-08T00:28:02;1.90;;;1.63;;
11646;SDS011;5880;52.342;9.662;2023-08-08T00:30:28;1.50;;;1.40;;
11646;SDS011;5880;52.342;9.662;2023-08-08T00:32:54;3.80;;;1.50;;
11646;SDS011;5880;52.342;9.662;2023-08-08T00:35:19;3.25;;;1.48;;
11646;SDS011;5880;52.342;9.662;2023-08-08T00:37:45;3.17;;;1.73;;
11646;SDS011;5880;52.342;9.662;2023-08-08T00:40:11;1.53;;;1.30;;
11646;SDS011;5880;52.342;9.662;2023-08-08T00:42:36;2.30;;;1.70;;
11646;SDS011;5880;52.342;9.662;2023-08-08T00:45:02;1.67;;;1.58;;
11646;SDS011;5880;52.342;9.662;2023-08-08T00:47:31;1.87;;;1.40;;
11646;SDS011;5880;52.342;9.662;2023-08-08T00:49:59;1.37;;;1.27;;
11646;SDS011;5880;52.342;9.662;2023-08-08T00:52:27;1.53;;;1.40;;
11646;SDS011;5880;52.342;9.662;2023-08-08T00:54:53;2.93;;;1.50;;
11646;SDS011;5880;52.342;9.662;2023-08-08T00:57:19;1.50;;;1.40;;
11646;SDS011;5880;52.342;9.662;2023-08-08T00:59:46;1.90;;;1.50;;
11646;SDS011;5880;52.342;9.662;2023-08-08T01:02:11;2.73;;;1.60;;
11646;SDS011;5880;52.342;9.662;2023-08-08T01:04:37;2.57;;;1.57;;
11646;SDS011;5880;52.342;9.662;2023-08-08T01:09:54;1.67;;;1.40;;
11646;SDS011;5880;52.342;9.662;2023-08-08T01:12:32;1.80;;;1.40;;
11646;SDS011;5880;52.342;9.662;2023-08-08T01:15:05;1.50;;;1.40;;
11646;SDS011;5880;52.342;9.662;2023-08-08T01:17:34;1.77;;;1.38;;
11646;SDS011;5880;52.342;9.662;2023-08-08T01:20:05;1.75;;;1.33;;
11646;SDS011;5880;52.342;9.662;2023-08-08T01:22:35;2.08;;;1.45;;
11646;SDS011;5880;52.342;9.662;2023-08-08T01:25:13;1.95;;;1.65;;
11646;SDS011;5880;52.342;9.662;2023-08-08T01:27:39;2.85;;;1.40;;
11646;SDS011;5880;52.342;9.662;2023-08-08T01:30:06;2.10;;;1.40;;
11646;SDS011;5880;52.342;9.662;2023-08-08T01:32:32;2.03;;;1.33;;
11646;SDS011;5880;52.342;9.662;2023-08-08T01:34:58;1.37;;;1.27;;
11646;SDS011;5880;52.342;9.662;2023-08-08T01:37:36;2.13;;;1.40;;
11646;SDS011;5880;52.342;9.662;2023-08-08T01:40:12;1.50;;;1.40;;
11646;SDS011;5880;52.342;9.662;2023-08-08T01:42:42;2.05;;;1.52;;
11646;SDS011;5880;52.342;9.662;2023-08-08T01:45:11;2.23;;;1.50;;
11646;SDS011;5880;52.342;9.662;2023-08-08T01:47:38;2.17;;;1.60;;
11646;SDS011;5880;52.342;9.662;2023-08-08T01:50:04;2.15;;;1.50;;
11646;SDS011;5880;52.342;9.662;2023-08-08T01:52:30;1.70;;;1.30;;
11646;SDS011;5880;52.342;9.662;2023-08-08T01:54:56;4.18;;;1.40;;
11646;SDS011;5880;52.342;9.662;2023-08-08T01:57:22;1.55;;;1.20;;
11646;SDS011;5880;52.342;9.662;2023-08-08T01:59:47;2.90;;;1.73;;
11646;SDS011;5880;52.342;9.662;2023-08-08T02:02:13;1.50;;;1.40;;
11646;SDS011;5880;52.342;9.662;2023-08-08T02:04:40;1.73;;;1.63;;
11646;SDS011;5880;52.342;9.662;2023-08-08T02:07:05;1.73;;;1.50;;
11646;SDS011;5880;52.342;9.662;2023-08-08T02:09:31;1.77;;;1.60;;
11646;SDS011;5880;52.342;9.662;2023-08-08T02:11:57;3.25;;;1.50;;
11646;SDS011;5880;52.342;9.662;2023-08-08T02:14:22;1.90;;;1.70;;
11646;SDS011;5880;52.342;9.662;2023-08-08T02:16:48;1.80;;;1.63;;
11646;SDS011;5880;52.342;9.662;2023-08-08T02:19:14;2.33;;;1.80;;
11646;SDS011;5880;52.342;9.662;2023-08-08T02:21:40;2.00;;;1.80;;
11646;SDS011;5880;52.342;9.662;2023-08-08T02:24:06;2.40;;;1.77;;
11646;SDS011;5880;52.342;9.662;2023-08-08T02:26:32;2.92;;;1.60;;
11646;SDS011;5880;52.342;9.662;2023-08-08T02:28:57;1.97;;;1.60;;
11646;SDS011;5880;52.342;9.662;2023-08-08T02:31:23;3.15;;;1.90;;
11646;SDS011;5880;52.342;9.662;2023-08-08T02:33:49;2.83;;;1.85;;
11646;SDS011;5880;52.342;9.662;2023-08-08T02:36:16;2.03;;;1.83;;
11646;SDS011;5880;52.342;9.662;2023-08-08T02:38:43;2.03;;;1.60;;
11646;SDS011;5880;52.342;9.662;2023-08-08T02:41:09;1.48;;;1.38;;
11646;SDS011;5880;52.342;9.662;2023-08-08T02:43:35;1.75;;;1.63;;
11646;SDS011;5880;52.342;9.662;2023-08-08T02:46:00;2.22;;;1.80;;
11646;SDS011;5880;52.342;9.662;2023-08-08T02:48:27;2.83;;;2.03;;
11646;SDS011;5880;52.342;9.662;2023-08-08T02:50:54;2.38;;;2.10;;
11646;SDS011;5880;52.342;9.662;2023-08-08T02:53:20;3.20;;;2.20;;
11646;SDS011;5880;52.342;9.662;2023-08-08T02:55:46;2.50;;;1.88;;
11646;SDS011;5880;52.342;9.662;2023-08-08T02:58:12;2.65;;;2.00;;
11646;SDS011;5880;52.342;9.662;2023-08-08T03:00:38;2.15;;;1.90;;
11646;SDS011;5880;52.342;9.662;2023-08-08T03:03:04;3.25;;;2.00;;
11646;SDS011;5880;52.342;9.662;2023-08-08T03:05:29;3.80;;;2.22;;
11646;SDS011;5880;52.342;9.662;2023-08-08T03:07:55;3.03;;;2.00;;
11646;SDS011;5880;52.342;9.662;2023-08-08T03:10:21;2.42;;;1.85;;
11646;SDS011;5880;52.342;9.662;2023-08-08T03:12:46;2.70;;;2.00;;
11646;SDS011;5880;52.342;9.662;2023-08-08T03:15:12;2.00;;;1.80;;
11646;SDS011;5880;52.342;9.662;2023-08-08T03:17:39;3.53;;;2.20;;
11646;SDS011;5880;52.342;9.662;2023-08-08T03:20:05;2.85;;;2.10;;
11646;SDS011;5880;52.342;9.662;2023-08-08T03:22:31;2.58;;;2.00;;
11646;SDS011;5880;52.342;9.662;2023-08-08T03:24:57;2.10;;;1.60;;
11646;SDS011;5880;52.342;9.662;2023-08-08T03:27:23;2.03;;;1.77;;
11646;SDS011;5880;52.342;9.662;2023-08-08T03:29:50;2.08;;;1.90;;
11646;SDS011;5880;52.342;9.662;2023-08-08T03:32:16;2.53;;;2.08;;
11646;SDS011;5880;52.342;9.662;2023-08-08T03:34:41;2.60;;;2.08;;
11646;SDS011;5880;52.342;9.662;2023-08-08T03:37:07;3.33;;;2.33;;
11646;SDS011;5880;52.342;9.662;2023-08-08T03:39:33;5.13;;;2.10;;
11646;SDS011;5880;52.342;9.662;2023-08-08T03:41:58;2.95;;;2.20;;
11646;SDS011;5880;52.342;9.662;2023-08-08T03:44:24;2.47;;;1.75;;
11646;SDS011;5880;52.342;9.662;2023-08-08T03:46:50;2.10;;;1.83;;
11646;SDS011;5880;52.342;9.662;2023-08-08T03:49:16;2.05;;;1.85;;
11646;SDS011;5880;52.342;9.662;2023-08-08T03:51:41;2.78;;;1.80;;
11646;SDS011;5880;52.342;9.662;2023-08-08T03:54:07;2.72;;;1.60;;
11646;SDS011;5880;52.342;9.662;2023-08-08T03:56:33;2.83;;;1.88;;
11646;SDS011;5880;52.342;9.662;2023-08-08T03:58:59;2.38;;;1.70;;
11646;SDS011;5880;52.342;9.662;2023-08-08T04:01:25;1.45;;;1.35;;
11646;SDS011;5880;52.342;9.662;2023-08-08T04:03:50;2.85;;;1.55;;
11646;SDS011;5880;52.342;9.662;2023-08-08T04:06:16;2.28;;;1.83;;
11646;SDS011;5880;52.342;9.662;2023-08-08T04:08:42;1.90;;;1.70;;
11646;SDS011;5880;52.342;9.662;2023-08-08T04:11:07;1.80;;;1.70;;
11646;SDS011;5880;52.342;9.662;2023-08-08T04:13:33;3.17;;;2.10;;
11646;SDS011;5880;52.342;9.662;2023-08-08T04:15:59;2.55;;;1.63;;
11646;SDS011;5880;52.342;9.662;2023-08-08T04:18:26;1.77;;;1.60;;
11646;SDS011;5880;52.342;9.662;2023-08-08T04:20:51;1.90;;;1.70;;
11646;SDS011;5880;52.342;9.662;2023-08-08T04:23:17;1.90;;;1.73;;
11646;SDS011;5880;52.342;9.662;2023-08-08T04:25:43;2.42;;;1.70;;
11646;SDS011;5880;52.342;9.662;2023-08-08T04:28:09;2.10;;;1.50;;
11646;SDS011;5880;52.342;9.662;2023-08-08T04:30:35;1.88;;;1.50;;
11646;SDS011;5880;52.342;9.662;2023-08-08T04:33:00;1.73;;;1.50;;
11646;SDS011;5880;52.342;9.662;2023-08-08T04:35:26;2.40;;;1.65;;
11646;SDS011;5880;52.342;9.662;2023-08-08T04:37:52;1.80;;;1.50;;
11646;SDS011;5880;52.342;9.662;2023-08-08T04:40:17;2.33;;;1.55;;
11646;SDS011;5880;52.342;9.662;2023-08-08T04:42:43;1.83;;;1.73;;
11646;SDS011;5880;52.342;9.662;2023-08-08T04:45:09;2.60;;;1.80;;
11646;SDS011;5880;52.342;9.662;2023-08-08T04:47:35;2.42;;;1.80;;
11646;SDS011;5880;52.342;9.662;2023-08-08T04:50:00;2.35;;;1.92;;
11646;SDS011;5880;52.342;9.662;2023-08-08T04:52:26;2.08;;;1.88;;
11646;SDS011;5880;52.342;9.662;2023-08-08T04:54:52;2.47;;;1.77;;
11646;SDS011;5880;52.342;9.662;2023-08-08T04:57:17;3.08;;;1.80;;
11646;SDS011;5880;52.342;9.662;2023-08-08T04:59:43;2.58;;;1.63;;
11646;SDS011;5880;52.342;9.662;2023-08-08T05:02:08;2.00;;;1.80;;
11646;SDS011;5880;52.342;9.662;2023-08-08T05:04:34;2.10;;;1.85;;
11646;SDS011;5880;52.342;9.662;2023-08-08T05:07:00;2.50;;;1.80;;
11646;SDS011;5880;52.342;9.662;2023-08-08T05:09:26;2.15;;;1.85;;
11646;SDS011;5880;52.342;9.662;2023-08-08T05:11:54;2.08;;;1.75;;
11646;SDS011;5880;52.342;9.662;2023-08-08T05:14:20;2.30;;;1.77;;
11646;SDS011;5880;52.342;9.662;2023-08-08T05:16:46;3.20;;;1.90;;
11646;SDS011;5880;52.342;9.662;2023-08-08T05:19:11;2.10;;;1.70;;
11646;SDS011;5880;52.342;9.662;2023-08-08T05:21:37;3.00;;;2.22;;
11646;SDS011;5880;52.342;9.662;2023-08-08T05:24:03;2.30;;;2.10;;
11646;SDS011;5880;52.342;9.662;2023-08-08T05:26:29;3.58;;;2.20;;
11646;SDS011;5880;52.342;9.662;2023-08-08T05:28:55;3.40;;;2.30;;
11646;SDS011;5880;52.342;9.662;2023-08-08T05:31:21;2.55;;;2.00;;
11646;SDS011;5880;52.342;9.662;2023-08-08T05:33:48;3.17;;;1.90;;
11646;SDS011;5880;52.342;9.662;2023-08-08T05:36:14;2.53;;;1.92;;
11646;SDS011;5880;52.342;9.662;2023-08-08T05:38:39;2.92;;;1.95;;
11646;SDS011;5880;52.342;9.662;2023-08-08T05:41:06;2.25;;;2.00;;
11646;SDS011;5880;52.342;9.662;2023-08-08T05:43:32;4.22;;;3.25;;
11646;SDS011;5880;52.342;9.662;2023-08-08T05:45:58;4.05;;;2.10;;
11646;SDS011;5880;52.342;9.662;2023-08-08T05:48:24;2.35;;;2.00;;
11646;SDS011;5880;52.342;9.662;2023-08-08T05:50:50;3.00;;;2.10;;
11646;SDS011;5880;52.342;9.662;2023-08-08T05:53:15;3.03;;;2.20;;
11646;SDS011;5880;52.342;9.662;2023-08-08T05:55:41;3.67;;;2.10;;
11646;SDS011;5880;52.342;9.662;2023-08-08T05:58:07;3.00;;;1.95;;
11646;SDS011;5880;52.342;9.662;2023-08-08T06:00:33;2.30;;;1.88;;
11646;SDS011;5880;52.342;9.662;2023-08-08T06:02:59;3.67;;;2.28;;
11646;SDS011;5880;52.342;9.662;2023-08-08T06:05:25;3.08;;;2.30;;
11646;SDS011;5880;52.342;9.662;2023-08-08T06:07:51;2.38;;;1.80;;
11646;SDS011;5880;52.342;9.662;2023-08-08T06:10:17;2.83;;;2.22;;
11646;SDS011;5880;52.342;9.662;2023-08-08T06:12:42;3.13;;;2.15;;
11646;SDS011;5880;52.342;9.662;2023-08-08T06:15:08;3.42;;;2.40;;
11646;SDS011;5880;52.342;9.662;2023-08-08T06:17:34;2.78;;;2.28;;
11646;SDS011;5880;52.342;9.662;2023-08-08T06:20:00;3.25;;;2.22;;
11646;SDS011;5880;52.342;9.662;2023-08-08T06:22:25;2.08;;;1.90;;
11646;SDS011;5880;52.342;9.662;2023-08-08T06:24:51;2.95;;;2.55;;
11646;SDS011;5880;52.342;9.662;2023-08-08T06:27:17;2.42;;;2.10;;
11646;SDS011;5880;52.342;9.662;2023-08-08T06:29:43;2.63;;;2.15;;
11646;SDS011;5880;52.342;9.662;2023-08-08T06:32:08;3.03;;;2.40;;
11646;SDS011;5880;52.342;9.662;2023-08-08T06:34:34;2.33;;;2.13;;
11646;SDS011;5880;52.342;9.662;2023-08-08T06:37:00;2.28;;;2.10;;
11646;SDS011;5880;52.342;9.662;2023-08-08T06:39:25;4.50;;;2.47;;
11646;SDS011;5880;52.342;9.662;2023-08-08T06:41:51;2.20;;;2.05;;
11646;SDS011;5880;52.342;9.662;2023-08-08T06:44:17;3.72;;;2.25;;
11646;SDS011;5880;52.342;9.662;2023-08-08T06:46:44;3.25;;;2.22;;
11646;SDS011;5880;52.342;9.662;2023-08-08T06:49:09;3.85;;;2.33;;
11646;SDS011;5880;52.342;9.662;2023-08-08T06:51:35;3.47;;;2.10;;
11646;SDS011;5880;52.342;9.662;2023-08-08T06:54:01;2.30;;;2.10;;
11646;SDS011;5880;52.342;9.662;2023-08-08T06:56:28;2.28;;;2.08;;
11646;SDS011;5880;52.342;9.662;2023-08-08T06:58:54;2.15;;;1.95;;
11646;SDS011;5880;52.342;9.662;2023-08-08T07:01:20;2.20;;;2.00;;
11646;SDS011;5880;52.342;9.662;2023-08-08T07:03:46;2.08;;;1.88;;
11646;SDS011;5880;52.342;9.662;2023-08-08T07:06:11;3.17;;;2.10;;
11646;SDS011;5880;52.342;9.662;2023-08-08T07:08:38;3.08;;;1.67;;
11646;SDS011;5880;52.342;9.662;2023-08-08T07:11:07;2.58;;;1.90;;
11646;SDS011;5880;52.342;9.662;2023-08-08T07:13:32;3.05;;;2.05;;
11646;SDS011;5880;52.342;9.662;2023-08-08T07:15:58;1.90;;;1.73;;
11646;SDS011;5880;52.342;9.662;2023-08-08T07:18:27;2.58;;;1.88;;
11646;SDS011;5880;52.342;9.662;2023-08-08T07:20:53;1.98;;;1.77;;
11646;SDS011;5880;52.342;9.662;2023-08-08T07:23:18;2.95;;;1.83;;
11646;SDS011;5880;52.342;9.662;2023-08-08T07:25:47;2.67;;;1.67;;
11646;SDS011;5880;52.342;9.662;2023-08-08T07:28:13;4.00;;;2.00;;
11646;SDS011;5880;52.342;9.662;2023-08-08T07:30:39;2.15;;;1.60;;
11646;SDS011;5880;52.342;9.662;2023-08-08T07:33:06;2.63;;;1.80;;
11646;SDS011;5880;52.342;9.662;2023-08-08T07:35:35;1.98;;;1.40;;
11646;SDS011;5880;52.342;9.662;2023-08-08T07:38:00;1.92;;;1.60;;
11646;SDS011;5880;52.342;9.662;2023-08-08T07:40:26;2.20;;;1.70;;
11646;SDS011;5880;52.342;9.662;2023-08-08T07:42:52;1.98;;;1.65;;
11646;SDS011;5880;52.342;9.662;2023-08-08T07:45:18;2.40;;;1.70;;
11646;SDS011;5880;52.342;9.662;2023-08-08T07:47:44;2.10;;;1.60;;
11646;SDS011;5880;52.342;9.662;2023-08-08T07:50:10;2.28;;;1.70;;
11646;SDS011;5880;52.342;9.662;2023-08-08T07:52:36;2.35;;;1.60;;
11646;SDS011;5880;52.342;9.662;2023-08-08T07:55:03;1.77;;;1.52;;
11646;SDS011;5880;52.342;9.662;2023-08-08T07:57:30;1.95;;;1.70;;
11646;SDS011;5880;52.342;9.662;2023-08-08T07:59:59;1.48;;;1.33;;
11646;SDS011;5880;52.342;9.662;2023-08-08T08:02:32;2.70;;;1.60;;
11646;SDS011;5880;52.342;9.662;2023-08-08T08:04:57;2.45;;;1.75;;
11646;SDS011;5880;52.342;9.662;2023-08-08T08:07:23;1.65;;;1.50;;
11646;SDS011;5880;52.342;9.662;2023-08-08T08:09:49;1.52;;;1.30;;
11646;SDS011;5880;52.342;9.662;2023-08-08T08:12:14;2.05;;;1.50;;
11646;SDS011;5880;52.342;9.662;2023-08-08T08:14:40;1.40;;;1.30;;
11646;SDS011;5880;52.342;9.662;2023-08-08T08:17:06;2.45;;;1.40;;
11646;SDS011;5880;52.342;9.662;2023-08-08T08:19:32;2.20;;;1.58;;
11646;SDS011;5880;52.342;9.662;2023-08-08T08:21:57;2.08;;;1.48;;
11646;SDS011;5880;52.342;9.662;2023-08-08T08:24:23;1.50;;;1.35;;
11646;SDS011;5880;52.342;9.662;2023-08-08T08:26:48;1.58;;;1.38;;
11646;SDS011;5880;52.342;9.662;2023-08-08T08:29:14;3.72;;;1.40;;
11646;SDS011;5880;52.342;9.662;2023-08-08T08:31:40;1.85;;;1.30;;
11646;SDS011;5880;52.342;9.662;2023-08-08T08:34:05;1.52;;;1.20;;
11646;SDS011;5880;52.342;9.662;2023-08-08T08:36:31;1.50;;;1.40;;
11646;SDS011;5880;52.342;9.662;2023-08-08T08:38:57;3.00;;;1.48;;
11646;SDS011;5880;52.342;9.662;2023-08-08T08:41:25;2.50;;;1.48;;
11646;SDS011;5880;52.342;9.662;2023-08-08T08:43:53;1.48;;;1.20;;
11646;SDS011;5880;52.342;9.662;2023-08-08T08:46:20;3.05;;;1.35;;
11646;SDS011;5880;52.342;9.662;2023-08-08T08:48:48;1.63;;;1.27;;
11646;SDS011;5880;52.342;9.662;2023-08-08T08:51:15;1.92;;;1.10;;
11646;SDS011;5880;52.342;9.662;2023-08-08T08:53:43;2.63;;;1.42;;
11646;SDS011;5880;52.342;9.662;2023-08-08T08:56:11;1.55;;;1.40;;
11646;SDS011;5880;52.342;9.662;2023-08-08T08:58:41;3.00;;;1.50;;
11646;SDS011;5880;52.342;9.662;2023-08-08T09:01:11;3.08;;;1.60;;
11646;SDS011;5880;52.342;9.662;2023-08-08T09:03:38;1.52;;;1.42;;
11646;SDS011;5880;52.342;9.662;2023-08-08T09:06:04;3.15;;;1.55;;
11646;SDS011;5880;52.342;9.662;2023-08-08T09:08:30;2.60;;;1.50;;
11646;SDS011;5880;52.342;9.662;2023-08-08T09:10:56;1.77;;;1.50;;
11646;SDS011;5880;52.342;9.662;2023-08-08T09:13:23;1.75;;;1.58;;
11646;SDS011;5880;52.342;9.662;2023-08-08T09:15:51;4.22;;;1.52;;
11646;SDS011;5880;52.342;9.662;2023-08-08T09:18:18;3.20;;;1.70;;
11646;SDS011;5880;52.342;9.662;2023-08-08T09:20:47;2.20;;;1.50;;
11646;SDS011;5880;52.342;9.662;2023-08-08T09:23:14;1.67;;;1.40;;
11646;SDS011;5880;52.342;9.662;2023-08-08T09:25:40;3.83;;;1.90;;
11646;SDS011;5880;52.342;9.662;2023-08-08T09:28:06;2.60;;;1.50;;
11646;SDS011;5880;52.342;9.662;2023-08-08T09:30:32;1.50;;;1.40;;
11646;SDS011;5880;52.342;9.662;2023-08-08T09:32:59;2.08;;;1.70;;
11646;SDS011;5880;52.342;9.662;2023-08-08T09:35:26;2.90;;;1.75;;
11646;SDS011;5880;52.342;9.662;2023-08-08T09:37:55;2.28;;;1.65;;
11646;SDS011;5880;52.342;9.662;2023-08-08T09:40:22;2.30;;;1.67;;
11646;SDS011;5880;52.342;9.662;2023-08-08T09:42:50;2.65;;;1.75;;
11646;SDS011;5880;52.342;9.662;2023-08-08T09:45:18;1.70;;;1.58;;
11646;SDS011;5880;52.342;9.662;2023-08-08T09:47:44;3.03;;;1.60;;
11646;SDS011;5880;52.342;9.662;2023-08-08T09:50:11;1.90;;;1.48;;
11646;SDS011;5880;52.342;9.662;2023-08-08T09:52:38;2.28;;;1.40;;
11646;SDS011;5880;52.342;9.662;2023-08-08T09:55:04;2.15;;;1.50;;
11646;SDS011;5880;52.342;9.662;2023-08-08T09:57:30;2.13;;;1.80;;
11646;SDS011;5880;52.342;9.662;2023-08-08T09:59:57;1.73;;;1.60;;
11646;SDS011;5880;52.342;9.662;2023-08-08T10:02:23;1.95;;;1.63;;
11646;SDS011;5880;52.342;9.662;2023-08-08T10:04:49;2.95;;;1.90;;
11646;SDS011;5880;52.342;9.662;2023-08-08T10:07:18;2.70;;;1.88;;
11646;SDS011;5880;52.342;9.662;2023-08-08T10:09:43;1.98;;;1.77;;
11646;SDS011;5880;52.342;9.662;2023-08-08T10:12:10;2.03;;;1.65;;
11646;SDS011;5880;52.342;9.662;2023-08-08T10:14:37;1.70;;;1.60;;
11646;SDS011;5880;52.342;9.662;2023-08-08T10:17:07;2.30;;;1.45;;
11646;SDS011;5880;52.342;9.662;2023-08-08T10:19:37;1.95;;;1.73;;
11646;SDS011;5880;52.342;9.662;2023-08-08T10:22:03;1.73;;;1.63;;
11646;SDS011;5880;52.342;9.662;2023-08-08T10:24:33;2.10;;;1.80;;
11646;SDS011;5880;52.342;9.662;2023-08-08T10:27:01;2.35;;;1.67;;
11646;SDS011;5880;52.342;9.662;2023-08-08T10:29:30;3.45;;;1.70;;
11646;SDS011;5880;52.342;9.662;2023-08-08T10:31:58;1.92;;;1.35;;
11646;SDS011;5880;52.342;9.662;2023-08-08T10:34:40;1.50;;;1.35;;
11646;SDS011;5880;52.342;9.662;2023-08-08T10:37:09;2.03;;;1.38;;
11646;SDS011;5880;52.342;9.662;2023-08-08T10:39:58;2.85;;;1.70;;
11646;SDS011;5880;52.342;9.662;2023-08-08T10:42:30;2.72;;;1.67;;
11646;SDS011;5880;52.342;9.662;2023-08-08T10:44:58;1.63;;;1.48;;
11646;SDS011;5880;52.342;9.662;2023-08-08T10:47:35;2.05;;;1.48;;
11646;SDS011;5880;52.342;9.662;2023-08-08T10:50:06;1.58;;;1.20;;
11646;SDS011;5880;52.342;9.662;2023-08-08T10:52:54;2.53;;;1.30;;
11646;SDS011;5880;52.342;9.662;2023-08-08T10:55:24;2.22;;;1.38;;
11646;SDS011;5880;52.342;9.662;2023-08-08T10:57:56;1.83;;;1.30;;
11646;SDS011;5880;52.342;9.662;2023-08-08T11:00:23;1.83;;;1.55;;
11646;SDS011;5880;52.342;9.662;2023-08-08T11:02:54;1.77;;;1.42;;
11646;SDS011;5880;52.342;9.662;2023-08-08T11:05:23;3.10;;;1.30;;
11646;SDS011;5880;52.342;9.662;2023-08-08T11:07:51;1.50;;;1.10;;
11646;SDS011;5880;52.342;9.662;2023-08-08T11:10:17;2.05;;;1.25;;
11646;SDS011;5880;52.342;9.662;2023-08-08T11:12:59;1.65;;;1.13;;
11646;SDS011;5880;52.342;9.662;2023-08-08T11:15:29;1.63;;;1.20;;
11646;SDS011;5880;52.342;9.662;2023-08-08T11:17:58;1.52;;;1.10;;
11646;SDS011;5880;52.342;9.662;2023-08-08T11:20:28;1.38;;;1.10;;
11646;SDS011;5880;52.342;9.662;2023-08-08T11:23:00;2.13;;;1.33;;
11646;SDS011;5880;52.342;9.662;2023-08-08T11:25:29;1.92;;;1.30;;
11646;SDS011;5880;52.342;9.662;2023-08-08T11:27:56;1.58;;;1.48;;
11646;SDS011;5880;52.342;9.662;2023-08-08T11:30:23;2.42;;;1.20;;
11646;SDS011;5880;52.342;9.662;2023-08-08T11:32:54;1.85;;;1.20;;
11646;SDS011;5880;52.342;9.662;2023-08-08T11:35:21;1.30;;;1.13;;
11646;SDS011;5880;52.342;9.662;2023-08-08T11:37:50;2.55;;;1.25;;
11646;SDS011;5880;52.342;9.662;2023-08-08T11:40:18;1.67;;;1.10;;
11646;SDS011;5880;52.342;9.662;2023-08-08T11:42:46;1.55;;;1.20;;
11646;SDS011;5880;52.342;9.662;2023-08-08T11:45:12;1.20;;;1.10;;
11646;SDS011;5880;52.342;9.662;2023-08-08T11:47:39;2.53;;;1.40;;
11646;SDS011;5880;52.342;9.662;2023-08-08T11:50:06;2.55;;;1.42;;
11646;SDS011;5880;52.342;9.662;2023-08-08T11:52:41;1.20;;;1.10;;
11646;SDS011;5880;52.342;9.662;2023-08-08T11:55:10;1.38;;;1.27;;
11646;SDS011;5880;52.342;9.662;2023-08-08T11:57:37;1.67;;;1.10;;
11646;SDS011;5880;52.342;9.662;2023-08-08T12:00:07;2.10;;;1.10;;
11646;SDS011;5880;52.342;9.662;2023-08-08T12:02:37;1.35;;;1.25;;
11646;SDS011;5880;52.342;9.662;2023-08-08T12:05:08;1.20;;;1.10;;
11646;SDS011;5880;52.342;9.662;2023-08-08T12:07:37;2.85;;;1.10;;
11646;SDS011;5880;52.342;9.662;2023-08-08T12:10:17;1.83;;;1.30;;
11646;SDS011;5880;52.342;9.662;2023-08-08T12:12:46;1.42;;;1.17;;
11646;SDS011;5880;52.342;9.662;2023-08-08T12:15:21;1.10;;;1.00;;
11646;SDS011;5880;52.342;9.662;2023-08-08T12:17:47;2.38;;;0.98;;
11646;SDS011;5880;52.342;9.662;2023-08-08T12:20:14;1.75;;;1.10;;
11646;SDS011;5880;52.342;9.662;2023-08-08T12:22:40;1.55;;;1.05;;
11646;SDS011;5880;52.342;9.662;2023-08-08T12:25:06;1.95;;;1.10;;
11646;SDS011;5880;52.342;9.662;2023-08-08T12:27:33;3.00;;;1.25;;
11646;SDS011;5880;52.342;9.662;2023-08-08T12:29:59;1.08;;;0.88;;
11646;SDS011;5880;52.342;9.662;2023-08-08T12:32:25;1.13;;;1.02;;
11646;SDS011;5880;52.342;9.662;2023-08-08T12:34:53;1.35;;;0.90;;
11646;SDS011;5880;52.342;9.662;2023-08-08T12:37:23;1.52;;;1.08;;
11646;SDS011;5880;52.342;9.662;2023-08-08T12:39:49;1.20;;;1.08;;
11646;SDS011;5880;52.342;9.662;2023-08-08T12:42:15;2.58;;;1.20;;
11646;SDS011;5880;52.342;9.662;2023-08-08T12:44:41;1.60;;;1.10;;
11646;SDS011;5880;52.342;9.662;2023-08-08T12:47:08;2.45;;;1.10;;
11646;SDS011;5880;52.342;9.662;2023-08-08T12:49:33;1.70;;;1.05;;
11646;SDS011;5880;52.342;9.662;2023-08-08T12:51:59;1.60;;;1.20;;
11646;SDS011;5880;52.342;9.662;2023-08-08T12:54:25;2.13;;;0.90;;
11646;SDS011;5880;52.342;9.662;2023-08-08T12:56:51;1.20;;;1.02;;
11646;SDS011;5880;52.342;9.662;2023-08-08T12:59:16;0.90;;;0.90;;
11646;SDS011;5880;52.342;9.662;2023-08-08T13:01:42;2.33;;;1.05;;
11646;SDS011;5880;52.342;9.662;2023-08-08T13:04:08;1.85;;;1.00;;
11646;SDS011;5880;52.342;9.662;2023-08-08T13:06:33;2.00;;;0.85;;
11646;SDS011;5880;52.342;9.662;2023-08-08T13:08:59;2.20;;;1.00;;
11646;SDS011;5880;52.342;9.662;2023-08-08T13:11:26;1.73;;;0.88;;
11646;SDS011;5880;52.342;9.662;2023-08-08T13:13:52;1.42;;;0.73;;
11646;SDS011;5880;52.342;9.662;2023-08-08T13:16:17;1.27;;;1.02;;
11646;SDS011;5880;52.342;9.662;2023-08-08T13:18:43;1.65;;;0.80;;
11646;SDS011;5880;52.342;9.662;2023-08-08T13:21:09;1.73;;;1.08;;
11646;SDS011;5880;52.342;9.662;2023-08-08T13:23:35;0.77;;;0.68;;
11646;SDS011;5880;52.342;9.662;2023-08-08T13:26:01;0.90;;;0.75;;
11646;SDS011;5880;52.342;9.662;2023-08-08T13:28:28;2.95;;;1.05;;
11646;SDS011;5880;52.342;9.662;2023-08-08T13:30:55;2.42;;;0.90;;
11646;SDS011;5880;52.342;9.662;2023-08-08T13:33:21;0.80;;;0.80;;
11646;SDS011;5880;52.342;9.662;2023-08-08T13:35:46;2.20;;;0.88;;
11646;SDS011;5880;52.342;9.662;2023-08-08T13:38:12;0.93;;;0.80;;
11646;SDS011;5880;52.342;9.662;2023-08-08T13:40:42;1.67;;;0.85;;
11646;SDS011;5880;52.342;9.662;2023-08-08T13:43:08;0.60;;;0.60;;
11646;SDS011;5880;52.342;9.662;2023-08-08T13:45:34;1.40;;;1.00;;
11646;SDS011;5880;52.342;9.662;2023-08-08T13:48:01;1.25;;;0.73;;
11646;SDS011;5880;52.342;9.662;2023-08-08T13:50:27;2.58;;;0.60;;
11646;SDS011;5880;52.342;9.662;2023-08-08T13:52:52;0.80;;;0.70;;
11646;SDS011;5880;52.342;9.662;2023-08-08T13:55:19;0.70;;;0.70;;
11646;SDS011;5880;52.342;9.662;2023-08-08T13:57:45;0.75;;;0.60;;
11646;SDS011;5880;52.342;9.662;2023-08-08T14:00:10;2.10;;;0.98;;
11646;SDS011;5880;52.342;9.662;2023-08-08T14:02:38;2.33;;;1.13;;
11646;SDS011;5880;52.342;9.662;2023-08-08T14:05:04;1.55;;;1.00;;
11646;SDS011;5880;52.342;9.662;2023-08-08T14:07:32;1.30;;;0.82;;
11646;SDS011;5880;52.342;9.662;2023-08-08T14:09:59;1.08;;;1.00;;
11646;SDS011;5880;52.342;9.662;2023-08-08T14:12:24;1.40;;;0.93;;
11646;SDS011;5880;52.342;9.662;2023-08-08T14:14:50;1.23;;;0.80;;
11646;SDS011;5880;52.342;9.662;2023-08-08T14:17:16;1.50;;;1.00;;
11646;SDS011;5880;52.342;9.662;2023-08-08T14:19:41;0.80;;;0.80;;
11646;SDS011;5880;52.342;9.662;2023-08-08T14:22:07;2.00;;;1.02;;
11646;SDS011;5880;52.342;9.662;2023-08-08T14:24:33;1.42;;;0.90;;
11646;SDS011;5880;52.342;9.662;2023-08-08T14:26:58;0.75;;;0.75;;
11646;SDS011;5880;52.342;9.662;2023-08-08T14:29:24;1.20;;;0.80;;
11646;SDS011;5880;52.342;9.662;2023-08-08T14:31:50;1.58;;;0.90;;
11646;SDS011;5880;52.342;9.662;2023-08-08T14:34:15;0.95;;;0.68;;
11646;SDS011;5880;52.342;9.662;2023-08-08T14:36:41;0.65;;;0.65;;
11646;SDS011;5880;52.342;9.662;2023-08-08T14:39:07;1.58;;;0.80;;
11646;SDS011;5880;52.342;9.662;2023-08-08T14:41:32;1.58;;;0.95;;
11646;SDS011;5880;52.342;9.662;2023-08-08T14:43:58;1.15;;;0.80;;
11646;SDS011;5880;52.342;9.662;2023-08-08T14:46:24;2.97;;;0.60;;
11646;SDS011;5880;52.342;9.662;2023-08-08T14:48:49;0.80;;;0.80;;
11646;SDS011;5880;52.342;9.662;2023-08-08T14:51:15;0.80;;;0.55;;
11646;SDS011;5880;52.342;9.662;2023-08-08T14:53:42;0.60;;;0.60;;
11646;SDS011;5880;52.342;9.662;2023-08-08T14:56:09;1.10;;;0.98;;
11646;SDS011;5880;52.342;9.662;2023-08-08T14:58:34;0.40;;;0.40;;
11646;SDS011;5880;52.342;9.662;2023-08-08T15:01:00;0.85;;;0.60;;